Portada
METAR-TAF:

METAR-TAF

Aeropuertos :

Aeropuerto Internacional de Yap

Yap, Micronesia

latitud: 09-29N, longitud: 138-05E, altitud: 28 m

Observación

El informe se hizo hace 50 minutos, a las 16:54 UTC
Viento 6 kt con dirección variable
Temperatura 26°C
Humedad 100%
Presión 1008 hPa
Visibilidad: 12.9 km
Nubes dispersas a una altura de 1600 ft, Cumulus congestus.
Cielo nuboso a una altura de 13000 ft
Cielo cubierto a una altura de 30000 ft
chaparrones de lluvia

METAR: PTYA 061654Z VRB06KT 8SM -SHRA SCT016TCU BKN130 OVC300 26/26 A2978 RMK SHRAB01 TCU ALQDS SLP084 T02590258

Hora: 03:44 (17:44 UTC)

Pronóstico

El informe se hizo hace 24 minutos, a las 17:20 UTC
Pronóstico válido del 06 a las 18 UTC al 07 a las 18 UTC
Viento 6 kt del este-sureste
Visibilidad: 10 km
Nubes dispersas a una altura de 1600 ft
Cielo nuboso a una altura de 13000 ft
chaparrones en las proximidades

TAF: PTYA 061720Z 0618/0718 11006KT P6SM VCSH SCT016 BKN130

Observaciones y pronósticos meteorológicos de más de 4000 aeropuertos (mensajes METAR y TAF).

Los puntos amarillos y rojos representan las estaciones disponibles.

Ponga el ratón en el punto deseado para ver el nombre de la estación.

Haga clic para ver las observaciones y los pronósticos meteorológicos.

Para cambiar el mapa : haga clic en los botones verdes con una cruz de color negro para hacer un zoom, en el botón verde con un guión para alejar o en las flechas verdes para mapas adyacentes.


METAR-TAF: